Archival Weather

NSFA McMurdo Sound

NSFA McMurdo Sound, Antarctica (NZCM)

Report from: Friday, September 23, 2022 1:15 PM UTC
Current time: Sunday, December 4, 2022 12:22 PM UTC

Current weather
Weather history
Weather forecast

Present weatherLight snow, mist
Temperature-19.7°C (-3.5°F)
Wind chill-31.4°C (-24.5°F)
Dew point-24.2°C (-11.6°F)
Winds 14 kts (7.2 m/s, 16.1 mph) East (90°)
Wind gusts 22 kts (11.3 m/s, 25.3 mph)
Visibility3.1 mi. (5 km)
Clouds Ceiling: Overcast 2,100 ft. (640 m)
Altimeter28.62 in.Hg (969 mB)
Precip. events Snow ended 1:00 PM
Snow began 1:15 PM
Relative humidity67 %
Density altitude-2,864 ft. (-873 m)
Sea-level pressure107.0 kPa (1070 mB, 31.59 in.Hg)
Remarks Fully automated report
System requires maintenance
Special weather observation
Automated weather observing station with precipitation discriminator
Flight conditions Marginal Visual Meteorological Conditions
Raw dataSPECI NZCM 231315Z AUTO 09014G22KT 5000 -SN BR OVC021 M20/M24 A2862 RMK AO2 SNE1300B1315 SLP697 T11971242 $
An error has occurred. This application may no longer respond until reloaded. Reload 🗙